Time;durP1;ratioP1;P1;durP2;ratioP2;P2;SDS_P1;SDS_P2;PMS_P1;PMS_P2;Temp;Humidity;BMP_temperature;BMP_pressure;BME280_temperature;BME280_humidity;BME280_pressure;Samples;Min_cycle;Max_cycle;Signal;HPM_P1;HPM_P2
2022/09/10 00:01:33;;;;;;;5.82;3.20;;;;;;;17.30;67.48;96434.03;5096990;28;20131;-62
2022/09/10 00:04:02;;;;;;;4.20;2.90;;;;;;;17.30;67.56;96438.47;5096863;28;20418;-62
2022/09/10 00:06:29;;;;;;;3.38;3.00;;;;;;;17.25;67.40;96445.88;5096719;28;20133;-63
2022/09/10 00:08:58;;;;;;;4.47;2.97;;;;;;;17.22;67.55;96436.34;5096459;28;20051;-66
2022/09/10 00:11:28;;;;;;;5.32;2.88;;;;;;;17.18;67.55;96445.41;5096345;28;20052;-66
2022/09/10 00:13:56;;;;;;;5.70;3.58;;;;;;;17.20;68.23;96448.81;5096609;28;20051;-63
2022/09/10 00:16:24;;;;;;;5.72;2.92;;;;;;;17.22;68.19;96451.38;5096411;28;20135;-64
2022/09/10 00:18:51;;;;;;;4.10;2.60;;;;;;;17.20;68.05;96447.97;5096430;28;20093;-63
2022/09/10 00:21:20;;;;;;;4.32;3.22;;;;;;;17.21;68.30;96450.50;5096492;28;20113;-63
2022/09/10 00:23:48;;;;;;;3.78;2.45;;;;;;;17.18;67.93;96448.91;5096415;28;20047;-62
2022/09/10 00:26:19;;;;;;;5.70;2.97;;;;;;;17.22;67.88;96443.44;5096299;28;20076;-64
2022/09/10 00:28:46;;;;;;;;;;;;;;;17.22;68.44;96440.78;5096673;28;20131;-64
2022/09/10 00:31:13;;;;;;;5.53;2.72;;;;;;;17.12;68.04;96435.25;5096231;28;19919;-63
2022/09/10 00:33:42;;;;;;;3.45;3.00;;;;;;;17.10;68.43;96432.72;5096119;28;20093;-64
2022/09/10 00:36:18;;;;;;;6.70;2.97;;;;;;;17.10;68.73;96430.06;5096174;28;20398;-63
2022/09/10 00:38:45;;;;;;;3.80;2.75;;;;;;;17.11;68.62;96430.94;5095981;28;20055;-64
2022/09/10 00:41:13;;;;;;;3.10;2.80;;;;;;;17.17;69.21;96433.16;5096118;28;20076;-66
2022/09/10 00:43:53;;;;;;;6.10;2.97;;;;;;;17.21;69.70;96442.56;5096031;28;20076;-66
2022/09/10 00:46:31;;;;;;;7.00;2.90;;;;;;;17.24;69.36;96438.88;5096014;28;20471;-65
2022/09/10 00:49:03;;;;;;;4.03;2.60;;;;;;;17.23;69.34;96430.13;5095987;28;20044;-65
2022/09/10 00:51:34;;;;;;;5.50;3.17;;;;;;;17.26;69.66;96437.84;5095886;28;20052;-62
2022/09/10 00:54:04;;;;;;;5.22;2.90;;;;;;;17.28;69.29;96438.56;5095829;28;20123;-60
2022/09/10 00:56:32;;;;;;;3.08;2.40;;;;;;;17.28;69.16;96438.56;5095662;28;20044;-63
2022/09/10 00:59:00;;;;;;;3.88;2.95;;;;;;;17.28;69.28;96433.28;5095663;28;20044;-64
2022/09/10 01:01:28;;;;;;;3.20;2.75;;;;;;;17.29;69.68;96437.66;5095868;28;20044;-63
2022/09/10 01:03:56;;;;;;;3.25;2.85;;;;;;;17.25;69.93;96436.13;5095575;28;20093;-64
2022/09/10 01:06:24;;;;;;;4.60;2.78;;;;;;;17.24;70.00;96436.22;5094838;28;20125;-65
2022/09/10 01:08:51;;;;;;;3.75;2.80;;;;;;;17.20;70.38;96421.53;5095512;28;20055;-65
2022/09/10 01:11:36;;;;;;;6.05;3.10;;;;;;;17.14;70.46;96431.59;5095219;28;20048;-65
2022/09/10 01:14:22;;;;;;;3.08;2.53;;;;;;;17.10;70.72;96424.78;5095394;28;20055;-65
2022/09/10 01:16:57;;;;;;;2.75;2.55;;;;;;;17.04;70.41;96422.53;5095464;28;20145;-65
2022/09/10 01:19:50;;;;;;;6.65;2.88;;;;;;;16.91;70.95;96406.63;5095214;28;20052;-62
2022/09/10 01:22:29;;;;;;;3.60;2.85;;;;;;;16.86;71.05;96401.66;5095515;28;20047;-62
2022/09/10 01:25:04;;;;;;;3.20;2.90;;;;;;;16.81;70.89;96403.75;5095343;28;20043;-64
2022/09/10 01:27:41;;;;;;;7.53;2.83;;;;;;;16.79;71.71;96411.78;5095123;28;20465;-63
2022/09/10 01:30:14;;;;;;;6.28;3.33;;;;;;;16.85;72.97;96404.38;5095031;28;20091;-64
2022/09/10 01:33:04;;;;;;;5.22;3.03;;;;;;;16.89;73.11;96411.19;5095168;28;20048;-64
2022/09/10 01:35:37;;;;;;;3.40;2.80;;;;;;;16.90;73.03;96416.38;5094914;28;20048;-64
2022/09/10 01:38:09;;;;;;;7.05;2.90;;;;;;;16.95;72.97;96415.22;5094962;28;20053;-64
2022/09/10 01:40:37;;;;;;;5.13;3.42;;;;;;;16.94;72.60;96406.44;5094851;28;20048;-63
2022/09/10 01:43:07;;;;;;;4.03;2.80;;;;;;;17.00;73.23;96421.03;5094843;28;20077;-63
2022/09/10 01:45:46;;;;;;;2.95;2.75;;;;;;;17.01;72.54;96420.09;5094899;28;20048;-63
2022/09/10 01:48:39;;;;;;;4.30;2.83;;;;;;;17.01;72.62;96426.22;5094698;28;20048;-61
2022/09/10 01:51:19;;;;;;;8.77;3.50;;;;;;;17.07;72.08;96426.78;5094766;28;20420;-63
2022/09/10 01:54:06;;;;;;;5.65;3.00;;;;;;;17.09;72.74;96419.59;5094814;28;20070;-63
2022/09/10 01:56:41;;;;;;;5.05;3.25;;;;;;;17.02;72.91;96414.72;5094510;28;20413;-64
2022/09/10 01:59:16;;;;;;;5.47;3.13;;;;;;;17.03;72.82;96419.03;5094654;28;20075;-60
2022/09/10 02:01:49;;;;;;;5.93;2.85;;;;;;;17.05;72.89;96426.88;5094472;28;20043;-64
2022/09/10 02:04:18;;;;;;;4.68;2.85;;;;;;;17.05;73.06;96425.09;5094490;28;20570;-62
2022/09/10 02:06:48;;;;;;;4.65;2.70;;;;;;;17.02;73.73;96416.50;5094247;28;20083;-65
2022/09/10 02:09:16;;;;;;;;;;;;;;;16.99;73.49;96411.41;5094798;28;20052;-64
2022/09/10 02:11:48;;;;;;;5.90;2.63;;;;;;;16.97;73.60;96406.22;5094186;28;20326;-63
2022/09/10 02:14:20;;;;;;;4.18;2.70;;;;;;;16.97;73.56;96408.88;5094079;28;20147;-63
2022/09/10 02:16:53;;;;;;;7.07;3.65;;;;;;;16.99;73.08;96401.72;5094082;28;20055;-66
2022/09/10 02:19:20;;;;;;;6.05;3.33;;;;;;;17.04;73.30;96406.69;5093280;28;20113;-64
2022/09/10 02:21:48;;;;;;;3.90;3.05;;;;;;;16.99;72.94;96401.72;5094075;28;20113;-62
2022/09/10 02:24:15;;;;;;;10.65;2.90;;;;;;;17.03;72.75;96415.53;5093933;28;20055;-62
2022/09/10 02:26:45;;;;;;;3.95;3.40;;;;;;;17.06;73.04;96417.97;5094041;28;20044;-65
2022/09/10 02:29:14;;;;;;;4.55;3.03;;;;;;;17.04;73.30;96427.81;5093931;28;20456;-64
2022/09/10 02:31:43;;;;;;;5.45;2.72;;;;;;;17.02;73.06;96424.44;5093969;28;20500;-64
2022/09/10 02:34:11;;;;;;;7.28;3.55;;;;;;;17.02;73.63;96424.44;5093931;28;20128;-63
2022/09/10 02:36:39;;;;;;;3.50;3.20;;;;;;;16.98;73.54;96415.84;5093698;28;20490;-61
2022/09/10 02:39:06;;;;;;;3.22;2.55;;;;;;;16.94;73.49;96417.00;5093897;28;20057;-63
2022/09/10 02:41:34;;;;;;;5.93;2.78;;;;;;;16.92;73.25;96422.38;5093789;28;20052;-65
2022/09/10 02:44:02;;;;;;;4.55;3.22;;;;;;;16.94;73.45;96419.63;5093726;28;20052;-62
2022/09/10 02:46:29;;;;;;;7.40;2.78;;;;;;;16.91;73.49;96418.06;5093474;28;20512;-62
2022/09/10 02:48:58;;;;;;;3.40;2.72;;;;;;;16.93;73.37;96410.88;5093629;28;20056;-64
2022/09/10 02:51:26;;;;;;;8.57;2.83;;;;;;;16.97;73.40;96410.66;5093686;28;20115;-64
2022/09/10 02:53:54;;;;;;;5.97;2.75;;;;;;;16.98;73.23;96418.47;5093917;28;20080;-66
2022/09/10 02:56:21;;;;;;;3.13;2.83;;;;;;;16.98;73.53;96428.22;5093539;28;20501;-62
2022/09/10 02:58:49;;;;;;;3.28;2.55;;;;;;;16.96;73.40;96419.53;5093457;28;20509;-64
2022/09/10 03:01:18;;;;;;;4.13;3.00;;;;;;;16.93;73.76;96417.97;5093515;28;20093;-64
2022/09/10 03:03:49;;;;;;;4.53;2.92;;;;;;;16.88;73.67;96420.91;5093521;28;20083;-63
2022/09/10 03:06:20;;;;;;;5.68;3.03;;;;;;;16.80;73.29;96416.09;5093356;28;20047;-61
2022/09/10 03:08:47;;;;;;;5.63;3.17;;;;;;;16.75;73.66;96420.00;5093438;28;20167;-65
2022/09/10 03:11:16;;;;;;;8.70;3.53;;;;;;;16.73;73.47;96422.75;5093071;28;20063;-62
2022/09/10 03:13:44;;;;;;;4.55;3.08;;;;;;;16.70;73.86;96412.38;5093278;28;20096;-65
2022/09/10 03:16:12;;;;;;;5.70;3.03;;;;;;;16.68;73.78;96414.28;5093246;28;20118;-63
2022/09/10 03:18:39;;;;;;;8.25;2.90;;;;;;;16.66;73.76;96417.03;5093296;28;20048;-61
2022/09/10 03:21:11;;;;;;;10.15;3.33;;;;;;;16.66;73.69;96401.19;5093264;28;20039;-60
2022/09/10 03:23:40;;;;;;;5.80;3.25;;;;;;;16.61;73.93;96402.41;5093261;28;20136;-62
2022/09/10 03:26:09;;;;;;;5.43;2.90;;;;;;;16.57;74.13;96395.63;5093235;28;20040;-64
2022/09/10 03:28:37;;;;;;;5.28;3.20;;;;;;;16.57;74.02;96387.72;5093218;28;20495;-63
2022/09/10 03:31:08;;;;;;;6.35;2.78;;;;;;;16.51;73.90;96392.47;5096867;28;20087;-62
2022/09/10 03:33:36;;;;;;;;;;;;;;;16.50;73.81;96398.66;5097797;28;20135;-62
2022/09/10 03:36:03;;;;;;;4.30;3.20;;;;;;;16.44;74.28;96412.28;5097345;28;19986;-63
2022/09/10 03:38:31;;;;;;;5.38;3.20;;;;;;;16.42;74.33;96411.53;5097381;28;20047;-65
2022/09/10 03:41:01;;;;;;;4.10;3.00;;;;;;;16.37;74.33;96417.09;5097269;28;20138;-65
2022/09/10 03:43:29;;;;;;;6.10;2.95;;;;;;;16.34;74.54;96416.44;5097263;28;20054;-62
2022/09/10 03:45:56;;;;;;;8.40;3.75;;;;;;;16.31;74.72;96421.94;5097164;28;20075;-63
2022/09/10 03:48:23;;;;;;;4.65;3.20;;;;;;;16.25;74.89;96425.78;5097232;28;20127;-63
2022/09/10 03:50:50;;;;;;;5.88;3.33;;;;;;;16.22;74.71;96431.28;5097144;28;20123;-62
2022/09/10 03:53:19;;;;;;;5.70;3.83;;;;;;;16.20;75.33;96420.81;5096913;28;20421;-65
2022/09/10 03:55:47;;;;;;;6.78;3.80;;;;;;;16.20;75.69;96414.69;5096784;28;20051;-64
2022/09/10 03:58:18;;;;;;;4.40;3.25;;;;;;;16.24;75.76;96416.16;5096827;28;20162;-63
2022/09/10 04:00:46;;;;;;;4.85;3.20;;;;;;;16.30;76.31;96418.44;5096907;28;20070;-63
2022/09/10 04:03:14;;;;;;;5.30;3.15;;;;;;;16.32;75.79;96418.34;5096755;28;20044;-64
2022/09/10 04:05:43;;;;;;;6.63;3.35;;;;;;;16.31;75.79;96414.00;5096548;28;20405;-63
2022/09/10 04:08:10;;;;;;;3.22;2.90;;;;;;;16.32;75.76;96419.19;5096705;28;20421;-62
2022/09/10 04:10:38;;;;;;;4.28;3.65;;;;;;;16.39;75.91;96423.13;5096262;28;20056;-66
2022/09/10 04:13:05;;;;;;;3.42;3.13;;;;;;;16.36;75.96;96415.41;5096659;28;20048;-66
2022/09/10 04:15:34;;;;;;;6.88;3.70;;;;;;;16.42;75.69;96408.88;5096447;28;20093;-66
2022/09/10 04:18:01;;;;;;;5.43;2.72;;;;;;;16.39;75.69;96409.06;5096669;28;20117;-63
2022/09/10 04:20:28;;;;;;;5.10;3.28;;;;;;;16.41;75.59;96410.66;5096519;28;20043;-65
2022/09/10 04:22:56;;;;;;;5.22;3.38;;;;;;;16.44;75.03;96409.66;5096523;28;20494;-63
2022/09/10 04:25:23;;;;;;;8.40;3.90;;;;;;;16.46;75.34;96415.66;5096279;28;20044;-64
2022/09/10 04:27:51;;;;;;;4.60;3.20;;;;;;;16.53;75.57;96401.09;5096400;28;20086;-64
2022/09/10 04:30:18;;;;;;;3.17;2.85;;;;;;;16.54;75.53;96416.03;5096386;28;20044;-66
2022/09/10 04:32:48;;;;;;;3.95;3.30;;;;;;;16.60;75.27;96417.41;5096523;28;20048;-65
2022/09/10 04:35:15;;;;;;;9.15;3.15;;;;;;;16.64;75.44;96424.19;5096291;28;20044;-64
2022/09/10 04:37:42;;;;;;;8.25;3.33;;;;;;;16.75;75.32;96428.78;5096086;28;20109;-66
2022/09/10 04:40:11;;;;;;;4.97;3.35;;;;;;;17.02;75.33;96427.06;5096007;28;20123;-62
2022/09/10 04:42:38;;;;;;;8.88;3.25;;;;;;;17.50;73.88;96423.06;5095013;28;20132;-65
2022/09/10 04:45:07;;;;;;;3.50;2.47;;;;;;;17.93;71.41;96425.41;5095963;28;20123;-63
2022/09/10 04:47:34;;;;;;;3.17;2.60;;;;;;;18.31;70.19;96436.91;5096186;28;20147;-62
2022/09/10 04:50:03;;;;;;;3.65;2.58;;;;;;;18.81;68.66;96430.72;5095857;28;20043;-63
2022/09/10 04:52:31;;;;;;;4.35;3.10;;;;;;;19.48;66.93;96416.16;5095979;28;20051;-65
2022/09/10 04:54:58;;;;;;;4.13;2.17;;;;;;;20.11;63.96;96415.78;5095906;28;20103;-63
2022/09/10 04:57:26;;;;;;;5.25;2.25;;;;;;;20.71;61.84;96423.41;5095777;28;20052;-62
2022/09/10 04:59:54;;;;;;;4.53;2.50;;;;;;;21.37;60.14;96433.22;5095613;28;20044;-64
2022/09/10 05:02:21;;;;;;;5.85;2.45;;;;;;;21.93;57.43;96416.09;5095590;28;20387;-66
2022/09/10 05:04:49;;;;;;;3.40;2.03;;;;;;;22.50;56.65;96429.88;5095609;28;20546;-64
2022/09/10 05:07:18;;;;;;;3.13;2.00;;;;;;;23.18;54.85;96423.00;5095567;28;20044;-63
2022/09/10 05:09:45;;;;;;;2.92;1.92;;;;;;;23.80;52.53;96425.31;5095361;28;20074;-63
2022/09/10 05:12:12;;;;;;;3.33;2.08;;;;;;;24.39;51.53;96426.13;5095372;28;20047;-61
2022/09/10 05:14:39;;;;;;;3.08;1.85;;;;;;;24.91;50.38;96424.72;5095492;28;20117;-66
2022/09/10 05:17:07;;;;;;;3.33;2.00;;;;;;;25.45;48.98;96418.50;5095267;28;20059;-65
2022/09/10 05:19:34;;;;;;;2.25;1.92;;;;;;;25.96;48.41;96415.19;5095336;28;20083;-63
2022/09/10 05:22:01;;;;;;;2.58;1.80;;;;;;;26.48;46.97;96406.25;5095281;28;20047;-60
2022/09/10 05:24:30;;;;;;;2.10;1.75;;;;;;;26.88;45.87;96411.88;5095301;28;20052;-66
2022/09/10 05:26:58;;;;;;;2.75;2.05;;;;;;;27.31;45.24;96410.13;5095422;28;20558;-67
2022/09/10 05:29:26;;;;;;;5.80;2.10;;;;;;;27.74;44.44;96413.47;5095128;28;20062;-66
2022/09/10 05:31:53;;;;;;;6.25;2.10;;;;;;;28.21;43.36;96411.00;5095174;28;20076;-64
2022/09/10 05:34:20;;;;;;;3.15;1.80;;;;;;;28.62;42.10;96410.00;5095169;28;20044;-65
2022/09/10 05:36:47;;;;;;;5.22;1.90;;;;;;;28.97;41.57;96412.38;5094985;28;20048;-66
2022/09/10 05:39:15;;;;;;;2.63;1.92;;;;;;;29.36;40.56;96409.72;5095092;28;20051;-64
2022/09/10 05:41:44;;;;;;;3.88;1.80;;;;;;;29.65;39.62;96408.16;5095279;28;20040;-67
2022/09/10 05:44:12;;;;;;;3.95;1.90;;;;;;;29.88;39.17;96408.09;5094969;28;20048;-64
2022/09/10 05:46:39;;;;;;;2.35;1.80;;;;;;;30.27;38.49;96402.63;5094876;28;20155;-68
2022/09/10 05:49:06;;;;;;;3.50;1.80;;;;;;;30.77;37.42;96412.84;5094608;28;20044;-64
2022/09/10 05:51:33;;;;;;;6.13;2.17;;;;;;;31.12;37.07;96417.56;5094654;28;20048;-66
2022/09/10 05:54:01;;;;;;;3.17;2.00;;;;;;;31.52;36.68;96404.44;5094478;28;20098;-62
2022/09/10 05:56:28;;;;;;;3.38;2.10;;;;;;;31.47;36.37;96395.25;5094586;28;20446;-65
2022/09/10 05:58:57;;;;;;;3.60;1.98;;;;;;;30.85;37.08;96393.00;5094448;28;20469;-67
2022/09/10 06:01:25;;;;;;;5.43;2.05;;;;;;;30.08;38.65;96388.69;5094805;28;20051;-67
2022/09/10 06:03:52;;;;;;;6.20;2.35;;;;;;;29.61;39.99;96393.38;5094491;28;20452;-63
2022/09/10 06:06:19;;;;;;;5.22;2.05;;;;;;;29.20;39.74;96391.84;5094378;28;20117;-66
2022/09/10 06:08:52;;;;;;;3.25;2.20;;;;;;;28.66;40.82;96404.28;5094417;28;20044;-64
2022/09/10 06:11:19;;;;;;;3.42;1.85;;;;;;;28.18;41.88;96399.75;5094137;28;20517;-67
2022/09/10 06:13:46;;;;;;;4.47;2.30;;;;;;;27.73;43.34;96393.00;5094220;28;20138;-63
2022/09/10 06:16:16;;;;;;;7.68;2.22;;;;;;;27.33;44.65;96402.75;5094166;28;20048;-65
2022/09/10 06:18:44;;;;;;;3.42;2.17;;;;;;;26.99;45.98;96416.13;5094318;28;20054;-64
2022/09/10 06:21:13;;;;;;;3.03;2.13;;;;;;;26.77;46.95;96404.16;5094091;28;20101;-65
2022/09/10 06:23:41;;;;;;;6.40;2.40;;;;;;;26.68;47.30;96408.66;5094101;28;20528;-66
2022/09/10 06:26:11;;;;;;;2.78;2.28;;;;;;;26.44;47.63;96412.09;5094110;28;20048;-64
2022/09/10 06:28:38;;;;;;;5.72;2.60;;;;;;;26.22;48.41;96411.66;5094108;28;20085;-63
2022/09/10 06:31:06;;;;;;;3.85;2.20;;;;;;;26.22;48.08;96408.97;5093908;28;20098;-65
2022/09/10 06:33:35;;;;;;;4.22;2.63;;;;;;;26.16;48.60;96410.47;5093831;28;20051;-62
2022/09/10 06:36:03;;;;;;;4.43;2.28;;;;;;;26.14;47.98;96409.75;5093831;28;20122;-65
2022/09/10 06:38:32;;;;;;;3.88;2.28;;;;;;;26.29;49.55;96412.72;5093749;28;20044;-65
2022/09/10 06:41:03;;;;;;;2.97;2.47;;;;;;;26.29;48.90;96409.16;5094055;28;20051;-62
2022/09/10 06:43:35;;;;;;;2.58;2.10;;;;;;;26.58;48.79;96406.09;5093774;28;20093;-64
2022/09/10 06:46:04;;;;;;;2.72;2.10;;;;;;;26.95;48.66;96414.75;5093969;28;20043;-61
2022/09/10 06:48:31;;;;;;;4.93;2.30;;;;;;;27.52;47.24;96414.13;5093590;28;20131;-62
2022/09/10 06:51:01;;;;;;;3.63;2.10;;;;;;;27.77;45.53;96409.59;5093631;28;20440;-64
2022/09/10 06:53:31;;;;;;;3.88;2.25;;;;;;;27.91;46.17;96412.59;5093751;28;20097;-64
2022/09/10 06:56:01;;;;;;;2.60;2.15;;;;;;;28.12;44.41;96406.66;5093659;28;20048;-64
2022/09/10 06:58:31;;;;;;;5.35;2.30;;;;;;;28.33;43.22;96414.19;5093500;28;20087;-65
2022/09/10 07:00:58;;;;;;;4.45;2.10;;;;;;;28.50;43.69;96406.03;5094017;28;20076;-61
2022/09/10 07:03:25;;;;;;;3.67;2.30;;;;;;;28.33;42.67;96405.28;5093533;28;20044;-66
2022/09/10 07:05:54;;;;;;;10.13;2.30;;;;;;;28.07;43.49;96409.03;5093003;28;20083;-64
2022/09/10 07:08:24;;;;;;;3.85;2.25;;;;;;;27.84;44.62;96409.78;5093544;28;20048;-63
2022/09/10 07:10:52;;;;;;;4.68;2.40;;;;;;;27.67;44.58;96407.13;5093346;28;20052;-65
2022/09/10 07:13:20;;;;;;;7.60;2.38;;;;;;;27.43;45.27;96405.25;5093283;28;20064;-66
2022/09/10 07:15:48;;;;;;;3.75;2.40;;;;;;;27.23;45.63;96402.88;5093422;28;20048;-66
2022/09/10 07:18:15;;;;;;;5.53;2.63;;;;;;;27.20;47.35;96412.13;5093228;28;20052;-62
2022/09/10 07:20:43;;;;;;;2.80;2.50;;;;;;;27.14;44.88;96420.84;5093148;28;20087;-66
2022/09/10 07:23:10;;;;;;;6.70;2.72;;;;;;;26.93;47.24;96416.75;5093184;28;20109;-63
2022/09/10 07:25:39;;;;;;;3.78;2.40;;;;;;;26.93;46.57;96413.22;5093159;28;20489;-62
2022/09/10 07:28:11;;;;;;;3.65;2.55;;;;;;;26.86;46.58;96413.06;5093221;28;20489;-62
2022/09/10 07:30:39;;;;;;;5.93;2.63;;;;;;;26.83;46.65;96405.34;5093166;28;20056;-63
2022/09/10 07:33:06;;;;;;;2.95;2.40;;;;;;;26.95;47.34;96395.97;5093078;28;20056;-66
2022/09/10 07:35:36;;;;;;;6.38;2.83;;;;;;;27.15;46.17;96387.63;5093019;28;20040;-62
2022/09/10 07:38:03;;;;;;;4.40;2.28;;;;;;;27.25;47.04;96399.06;5092967;28;20468;-63
2022/09/10 07:40:31;;;;;;;7.43;2.50;;;;;;;27.92;44.91;96398.13;5092998;28;20042;-63
2022/09/10 07:43:00;;;;;;;5.63;2.85;;;;;;;28.64;44.14;96399.06;5093009;28;20130;-64
2022/09/10 07:45:29;;;;;;;5.78;2.00;;;;;;;29.01;43.70;96399.38;5092952;28;20400;-62
2022/09/10 07:47:56;;;;;;;4.22;2.08;;;;;;;29.30;42.99;96397.81;5091671;28;20139;-64
2022/09/10 07:50:23;;;;;;;3.70;2.15;;;;;;;29.58;41.07;96394.56;5093032;28;20102;-63
2022/09/10 07:52:51;;;;;;;5.82;2.30;;;;;;;29.57;41.54;96400.16;5093019;28;20048;-65
2022/09/10 07:55:18;;;;;;;4.68;2.65;;;;;;;29.42;41.51;96410.84;5092950;28;20501;-65
2022/09/10 07:57:47;;;;;;;5.15;2.58;;;;;;;29.33;41.77;96402.00;5092865;28;20064;-65
2022/09/10 08:00:17;;;;;;;6.88;2.90;;;;;;;29.26;42.18;96405.41;5092669;28;20142;-64
2022/09/10 08:02:45;;;;;;;4.10;2.47;;;;;;;29.16;42.66;96396.75;5092993;28;20044;-65
2022/09/10 08:05:13;;;;;;;5.82;2.50;;;;;;;29.05;43.10;96386.41;5092825;28;20123;-66
2022/09/10 08:07:41;;;;;;;5.82;3.00;;;;;;;28.89;43.47;96389.00;5092860;28;20044;-65
2022/09/10 08:10:10;;;;;;;2.85;2.17;;;;;;;28.76;44.97;96383.38;5092499;28;20075;-65
2022/09/10 08:12:38;;;;;;;7.80;3.03;;;;;;;28.68;44.00;96383.44;5092954;28;20051;-65
2022/09/10 08:15:07;;;;;;;5.10;2.60;;;;;;;28.66;44.18;96389.00;5093162;28;20056;-61
2022/09/10 08:17:37;;;;;;;6.03;3.03;;;;;;;28.63;45.32;96395.53;5096372;28;20125;-62
2022/09/10 08:20:06;;;;;;;3.80;3.00;;;;;;;28.47;44.43;96395.66;5096455;28;20067;-63
2022/09/10 08:22:34;;;;;;;5.10;3.10;;;;;;;28.37;45.39;96407.44;5096529;28;20058;-63
2022/09/10 08:25:01;;;;;;;4.82;2.63;;;;;;;28.29;45.57;96415.53;5096399;28;20048;-64
2022/09/10 08:27:28;;;;;;;4.20;2.65;;;;;;;28.13;45.77;96417.25;5096252;28;20048;-66
2022/09/10 08:29:56;;;;;;;5.32;3.33;;;;;;;28.07;44.32;96411.72;5096327;28;20128;-63
2022/09/10 08:32:23;;;;;;;4.93;2.97;;;;;;;28.10;46.51;96411.38;5096241;28;20170;-60
2022/09/10 08:34:52;;;;;;;7.32;2.88;;;;;;;28.42;47.55;96403.38;5096154;28;20036;-64
2022/09/10 08:37:19;;;;;;;10.00;3.58;;;;;;;28.91;44.00;96409.50;5096032;28;20056;-61
2022/09/10 08:39:48;;;;;;;5.35;3.50;;;;;;;29.42;41.89;96400.94;5096109;28;20044;-65
2022/09/10 08:42:21;;;;;;;4.40;2.70;;;;;;;29.81;43.73;96401.78;5096082;28;20080;-65
2022/09/10 08:44:53;;;;;;;6.10;3.20;;;;;;;30.07;40.26;96397.78;5096012;28;20101;-65
2022/09/10 08:47:32;;;;;;;6.40;3.25;;;;;;;30.06;40.15;96393.41;5096072;28;20488;-64
2022/09/10 08:50:05;;;;;;;3.28;2.97;;;;;;;29.99;39.18;96392.50;5095919;28;20401;-63
2022/09/10 08:52:41;;;;;;;6.30;3.38;;;;;;;29.87;40.09;96389.41;5095922;28;20093;-65
2022/09/10 08:55:23;;;;;;;5.03;3.33;;;;;;;29.67;40.27;96381.88;5095870;28;20080;-65
2022/09/10 08:57:55;;;;;;;4.47;3.28;;;;;;;29.33;40.90;96380.47;5095653;28;20087;-64
2022/09/10 09:00:26;;;;;;;5.03;3.38;;;;;;;29.05;42.74;96371.09;5095694;28;20189;-65
2022/09/10 09:03:00;;;;;;;7.85;3.95;;;;;;;28.82;43.57;96371.91;5095711;28;20052;-66
2022/09/10 09:05:38;;;;;;;7.72;3.58;;;;;;;28.26;43.57;96362.94;5095594;28;20062;-65
2022/09/10 09:08:05;;;;;;;5.45;3.13;;;;;;;28.32;45.15;96361.41;5095621;28;20478;-63
2022/09/10 09:10:44;;;;;;;5.28;3.33;;;;;;;28.30;44.92;96357.22;5095410;28;20055;-65
2022/09/10 09:13:40;;;;;;;6.45;3.47;;;;;;;28.48;45.03;96354.28;5095401;28;20486;-64
2022/09/10 09:16:21;;;;;;;6.35;3.30;;;;;;;28.69;44.51;96359.03;5095389;28;20408;-66
2022/09/10 09:19:01;;;;;;;9.10;3.45;;;;;;;29.04;44.33;96361.34;5095237;28;20515;-64
2022/09/10 09:21:40;;;;;;;9.88;3.83;;;;;;;29.42;43.18;96357.00;5095441;28;20059;-63
2022/09/10 09:24:22;;;;;;;7.03;3.80;;;;;;;29.68;42.44;96355.78;5095266;28;20461;-64
2022/09/10 09:26:49;;;;;;;10.23;3.47;;;;;;;29.64;42.47;96358.81;5094787;28;20431;-66
2022/09/10 09:29:22;;;;;;;6.90;3.80;;;;;;;29.74;43.00;96355.84;5095059;28;20048;-66
2022/09/10 09:31:55;;;;;;;7.80;3.50;;;;;;;29.82;41.86;96360.31;5095147;28;20106;-63
2022/09/10 09:34:28;;;;;;;8.30;3.70;;;;;;;30.02;41.57;96365.16;5095044;28;20044;-62
2022/09/10 09:37:02;;;;;;;7.43;3.72;;;;;;;30.13;41.56;96363.88;5095092;28;20067;-65
2022/09/10 09:39:36;;;;;;;7.07;3.55;;;;;;;30.18;40.92;96368.69;5095043;28;20056;-64
2022/09/10 09:42:11;;;;;;;9.00;3.72;;;;;;;30.37;40.57;96351.94;5094861;28;20482;-63
2022/09/10 09:44:47;;;;;;;8.48;3.75;;;;;;;30.58;39.62;96350.31;5094937;28;20040;-65
2022/09/10 09:47:14;;;;;;;8.95;3.53;;;;;;;30.63;39.35;96347.03;5094809;28;20044;-64
2022/09/10 09:49:41;;;;;;;5.25;3.42;;;;;;;30.33;37.44;96342.56;5094703;28;20093;-62
2022/09/10 09:52:21;;;;;;;9.98;3.80;;;;;;;29.99;40.67;96339.44;5094723;28;20043;-63
2022/09/10 09:54:53;;;;;;;7.33;3.50;;;;;;;29.87;40.32;96339.06;5094757;28;20084;-64
2022/09/10 09:57:21;;;;;;;10.55;3.83;;;;;;;29.89;39.01;96334.31;5094552;28;20055;-64
2022/09/10 09:59:49;;;;;;;7.57;3.35;;;;;;;30.18;41.41;96336.34;5094781;28;20044;-66
2022/09/10 10:02:20;;;;;;;3.95;3.55;;;;;;;30.26;41.76;96333.56;5094450;28;20052;-67
2022/09/10 10:05:04;;;;;;;8.85;3.50;;;;;;;30.26;41.11;96331.72;5094520;28;20047;-66
2022/09/10 10:07:36;;;;;;;6.20;3.55;;;;;;;30.14;38.31;96323.25;5094660;28;20044;-62
2022/09/10 10:10:07;;;;;;;6.75;3.63;;;;;;;30.06;40.58;96314.38;5094246;28;20086;-65
2022/09/10 10:12:41;;;;;;;8.30;4.05;;;;;;;30.00;39.03;96305.19;5094718;28;20044;-64
2022/09/10 10:15:37;;;;;;;6.22;3.75;;;;;;;30.18;39.16;96302.13;5094365;28;20466;-62
2022/09/10 10:18:30;;;;;;;7.22;3.30;;;;;;;30.34;38.79;96298.38;5094286;28;20051;-65
2022/09/10 10:21:14;;;;;;;7.30;3.67;;;;;;;30.65;39.75;96293.75;5094355;28;20101;-62
2022/09/10 10:23:44;;;;;;;10.35;3.78;;;;;;;31.02;38.83;96305.31;5094226;28;20129;-65
2022/09/10 10:26:25;;;;;;;4.75;3.38;;;;;;;31.31;36.86;96299.94;5094130;28;20052;-62
2022/09/10 10:28:57;;;;;;;7.32;3.88;;;;;;;31.48;37.85;96289.69;5094030;28;20413;-63
2022/09/10 10:31:32;;;;;;;5.97;3.63;;;;;;;31.54;35.77;96284.53;5094127;28;20051;-64
2022/09/10 10:34:07;;;;;;;9.02;3.83;;;;;;;31.38;37.68;96286.50;5093991;28;20052;-62
2022/09/10 10:36:45;;;;;;;7.13;3.58;;;;;;;30.98;36.76;96281.59;5093884;28;20081;-62
2022/09/10 10:39:23;;;;;;;8.30;3.38;;;;;;;30.81;38.73;96273.78;5092827;28;20048;-63
2022/09/10 10:42:03;;;;;;;8.02;4.03;;;;;;;30.85;38.49;96272.34;5093877;28;20055;-64
2022/09/10 10:44:56;;;;;;;5.88;3.60;;;;;;;30.72;36.96;96266.81;5093878;28;20065;-62
2022/09/10 10:47:43;;;;;;;7.63;3.60;;;;;;;30.76;37.96;96270.84;5093674;28;20048;-62
2022/09/10 10:50:24;;;;;;;10.93;4.05;;;;;;;30.85;37.26;96260.75;5093731;28;20044;-66
2022/09/10 10:53:10;;;;;;;7.00;3.70;;;;;;;30.77;36.77;96262.56;5093686;28;20040;-64
2022/09/10 10:55:44;;;;;;;11.15;3.58;;;;;;;30.67;36.74;96253.88;5093635;28;20135;-65
2022/09/10 10:58:51;;;;;;;5.57;3.92;;;;;;;30.62;38.05;96251.78;5093534;28;20052;-62
2022/09/10 11:01:21;;;;;;;8.85;3.70;;;;;;;30.60;37.58;96250.28;5088206;28;20083;-66
2022/09/10 11:03:59;;;;;;;9.27;4.10;;;;;;;30.49;36.41;96241.69;5093596;28;20127;-62
2022/09/10 11:06:34;;;;;;;8.88;3.70;;;;;;;30.47;39.04;96238.38;5093591;28;20050;-62
2022/09/10 11:09:06;;;;;;;12.20;4.10;;;;;;;30.61;37.41;96230.41;5093360;28;20146;-62
2022/09/10 11:11:40;;;;;;;11.50;3.53;;;;;;;30.76;38.15;96224.97;5093041;28;20083;-63
2022/09/10 11:14:21;;;;;;;8.70;3.80;;;;;;;30.68;37.20;96227.75;5093444;28;20040;-65
2022/09/10 11:16:54;;;;;;;7.13;3.78;;;;;;;30.43;37.29;96222.75;5093227;28;20059;-64
2022/09/10 11:19:30;;;;;;;8.45;4.05;;;;;;;30.28;37.99;96223.66;5093248;28;20142;-66
2022/09/10 11:22:04;;;;;;;6.18;4.07;;;;;;;30.16;39.40;96225.16;5093198;28;20486;-62
2022/09/10 11:24:39;;;;;;;8.65;4.13;;;;;;;30.12;37.21;96221.97;5093316;28;20055;-65
2022/09/10 11:27:13;;;;;;;10.00;4.10;;;;;;;30.11;37.91;96229.25;5093294;28;20097;-61
2022/09/10 11:29:44;;;;;;;5.18;4.05;;;;;;;30.11;38.21;96229.25;5093231;28;20505;-64
2022/09/10 11:32:29;;;;;;;9.43;4.22;;;;;;;30.14;38.32;96215.41;5093275;28;20131;-65
2022/09/10 11:35:04;;;;;;;7.80;4.28;;;;;;;30.23;39.24;96207.22;5093243;28;20048;-66
2022/09/10 11:37:44;;;;;;;8.38;4.45;;;;;;;30.26;38.59;96202.28;5093066;28;20548;-63
2022/09/10 11:40:18;;;;;;;12.02;4.28;;;;;;;30.30;37.95;96205.41;5093217;28;20551;-66
2022/09/10 11:42:53;;;;;;;8.63;4.05;;;;;;;30.38;38.52;96193.66;5093098;28;20044;-64
2022/09/10 11:45:28;;;;;;;10.60;5.43;;;;;;;30.38;40.76;96196.34;5093207;28;20113;-62
2022/09/10 11:48:01;;;;;;;17.02;4.20;;;;;;;30.36;38.39;96195.72;5093110;28;20113;-64
2022/09/10 11:50:37;;;;;;;8.85;4.30;;;;;;;30.26;38.11;96191.50;5093863;28;20493;-63
2022/09/10 11:53:06;;;;;;;6.07;3.85;;;;;;;30.20;39.03;96196.81;5097060;28;20052;-64